Vremea acum in Dăbuleni - Romania

Vrei sa afli care e starea vremii acum in Mehedinti - Romania? Dorim sa iti furnizam starea vremii pentru Mehedinti - Romania. Starea vremii Mehedinti - Romania pentru astazi.

Vremea acum in Dăbuleni

Temperatura: 10.8 °C

Este: Senin
Se simte ca: 10.1 °C
Innorat: 6 %
Precipitatii: 0 %
Presiune atmosferica: 1017 hPa
Umiditate: 63%
Vizibilitate: 10 km
Vantul bate din WSW cu 7.2 km/h

Evolutia vremii in Dăbuleni pe ore

Ora: 04:00
Senin
Temperatura: 10.8°C
Sansa de precipitatii: 0%
Ora Descriere Temp Se simte Precipitatii Umiditate Vant
00:00Senin12.3°11.8°0%64%S 7.2 KM/H
01:00Senin11.8°11.2°0%65%SW 7.6 KM/H
02:00Senin11.4°10.8°0%64%WSW 7.6 KM/H
03:00Senin11.1°10.4°0%63%WSW 7.6 KM/H
04:00Senin10.8°10.1°0%63%WSW 7.2 KM/H
05:00Senin10.2°9.6°0%64%WSW 6.8 KM/H
06:00Senin9.9°9.1°0%65%WSW 6.8 KM/H
07:00Senin10.3°9.8°0%67%SW 6.1 KM/H
08:00Senin13.5°13.7°0%61%SW 5 KM/H
09:00Senin15.8°15.8°0%55%WSW 5.8 KM/H
10:00Senin17.9°17.9°0%53%WSW 4.7 KM/H
11:00Senin20.1°20.1°0%50%WSW 4.3 KM/H
12:00Senin22°22°0%46%SW 3.6 KM/H
13:00Senin23.5°24.6°0%42%SSW 4.3 KM/H
14:00Senin24.4°24.8°0%37%S 5.4 KM/H
15:00Senin24.6°24.8°0%34%SSE 7.2 KM/H
16:00Senin24.7°24.8°0%34%SSE 7.9 KM/H
17:00Senin24.6°24.8°0%35%SSE 9 KM/H
18:00Senin24.2°24.8°0%38%SSE 10.1 KM/H
19:00Senin22.2°24.5°0%51%SSE 9.7 KM/H
20:00Senin18.5°18.5°0%58%SSE 9.7 KM/H
21:00Senin16.4°16.4°0%64%SSE 11.2 KM/H
22:00Senin15.2°15.2°0%67%SSE 11.5 KM/H
23:00Senin14.7°14.1°0%65%SSE 11.2 KM/H




tutorials